sensor_id;sensor_type;location;lat;lon;timestamp;P1;durP1;ratioP1;P2;durP2;ratioP2
14396;SDS011;50653;47.810;13.022;2023-11-21T00:02:13;1.40;;;1.20;;
14396;SDS011;50653;47.810;13.022;2023-11-21T00:04:39;1.17;;;1.07;;
14396;SDS011;50653;47.810;13.022;2023-11-21T00:07:04;1.70;;;1.00;;
14396;SDS011;50653;47.810;13.022;2023-11-21T00:09:31;1.20;;;1.10;;
14396;SDS011;50653;47.810;13.022;2023-11-21T00:11:57;1.67;;;1.33;;
14396;SDS011;50653;47.810;13.022;2023-11-21T00:14:24;1.43;;;1.33;;
14396;SDS011;50653;47.810;13.022;2023-11-21T00:16:50;0.77;;;0.70;;
14396;SDS011;50653;47.810;13.022;2023-11-21T00:19:16;1.10;;;0.83;;
14396;SDS011;50653;47.810;13.022;2023-11-21T00:21:42;0.97;;;0.87;;
14396;SDS011;50653;47.810;13.022;2023-11-21T00:24:11;0.70;;;0.70;;
14396;SDS011;50653;47.810;13.022;2023-11-21T00:26:41;1.00;;;0.87;;
14396;SDS011;50653;47.810;13.022;2023-11-21T00:29:07;1.03;;;0.93;;
14396;SDS011;50653;47.810;13.022;2023-11-21T00:31:34;2.17;;;1.67;;
14396;SDS011;50653;47.810;13.022;2023-11-21T00:34:02;1.63;;;1.10;;
14396;SDS011;50653;47.810;13.022;2023-11-21T00:36:33;1.30;;;1.10;;
14396;SDS011;50653;47.810;13.022;2023-11-21T00:38:59;0.93;;;0.83;;
14396;SDS011;50653;47.810;13.022;2023-11-21T00:41:31;1.10;;;1.00;;
14396;SDS011;50653;47.810;13.022;2023-11-21T00:43:57;0.90;;;0.90;;
14396;SDS011;50653;47.810;13.022;2023-11-21T00:46:24;0.90;;;0.73;;
14396;SDS011;50653;47.810;13.022;2023-11-21T00:48:52;1.33;;;0.70;;
14396;SDS011;50653;47.810;13.022;2023-11-21T00:51:19;0.73;;;0.57;;
14396;SDS011;50653;47.810;13.022;2023-11-21T00:53:45;0.70;;;0.60;;
14396;SDS011;50653;47.810;13.022;2023-11-21T00:56:12;0.87;;;0.60;;
14396;SDS011;50653;47.810;13.022;2023-11-21T00:58:38;1.00;;;0.70;;
14396;SDS011;50653;47.810;13.022;2023-11-21T01:01:07;0.70;;;0.60;;
14396;SDS011;50653;47.810;13.022;2023-11-21T01:03:33;0.90;;;0.90;;
14396;SDS011;50653;47.810;13.022;2023-11-21T01:05:59;1.23;;;0.80;;
14396;SDS011;50653;47.810;13.022;2023-11-21T01:08:25;0.70;;;0.50;;
14396;SDS011;50653;47.810;13.022;2023-11-21T01:10:51;0.80;;;0.60;;
14396;SDS011;50653;47.810;13.022;2023-11-21T01:13:16;0.83;;;0.83;;
14396;SDS011;50653;47.810;13.022;2023-11-21T01:15:43;0.70;;;0.60;;
14396;SDS011;50653;47.810;13.022;2023-11-21T01:18:09;0.80;;;0.60;;
14396;SDS011;50653;47.810;13.022;2023-11-21T01:20:35;0.73;;;0.60;;
14396;SDS011;50653;47.810;13.022;2023-11-21T01:23:01;0.90;;;0.60;;
14396;SDS011;50653;47.810;13.022;2023-11-21T01:25:26;0.90;;;0.57;;
14396;SDS011;50653;47.810;13.022;2023-11-21T01:27:52;0.93;;;0.70;;
14396;SDS011;50653;47.810;13.022;2023-11-21T01:30:18;0.60;;;0.57;;
14396;SDS011;50653;47.810;13.022;2023-11-21T01:32:44;0.87;;;0.60;;
14396;SDS011;50653;47.810;13.022;2023-11-21T01:35:10;0.60;;;0.40;;
14396;SDS011;50653;47.810;13.022;2023-11-21T01:37:37;0.80;;;0.60;;
14396;SDS011;50653;47.810;13.022;2023-11-21T01:40:03;0.70;;;0.50;;
14396;SDS011;50653;47.810;13.022;2023-11-21T01:42:34;0.63;;;0.50;;
14396;SDS011;50653;47.810;13.022;2023-11-21T01:45:00;0.70;;;0.50;;
14396;SDS011;50653;47.810;13.022;2023-11-21T01:47:30;0.97;;;0.50;;
14396;SDS011;50653;47.810;13.022;2023-11-21T01:49:57;0.73;;;0.50;;
14396;SDS011;50653;47.810;13.022;2023-11-21T01:52:23;0.80;;;0.60;;
14396;SDS011;50653;47.810;13.022;2023-11-21T01:54:49;1.00;;;0.70;;
14396;SDS011;50653;47.810;13.022;2023-11-21T01:57:16;0.80;;;0.63;;
14396;SDS011;50653;47.810;13.022;2023-11-21T01:59:42;2.13;;;0.93;;
14396;SDS011;50653;47.810;13.022;2023-11-21T02:02:09;1.10;;;0.67;;
14396;SDS011;50653;47.810;13.022;2023-11-21T02:04:36;0.83;;;0.80;;
14396;SDS011;50653;47.810;13.022;2023-11-21T02:07:02;0.80;;;0.60;;
14396;SDS011;50653;47.810;13.022;2023-11-21T02:09:30;0.50;;;0.37;;
14396;SDS011;50653;47.810;13.022;2023-11-21T02:11:58;0.70;;;0.60;;
14396;SDS011;50653;47.810;13.022;2023-11-21T02:14:27;0.70;;;0.50;;
14396;SDS011;50653;47.810;13.022;2023-11-21T02:16:54;0.73;;;0.57;;
14396;SDS011;50653;47.810;13.022;2023-11-21T02:19:21;0.70;;;0.50;;
14396;SDS011;50653;47.810;13.022;2023-11-21T02:21:53;0.60;;;0.50;;
14396;SDS011;50653;47.810;13.022;2023-11-21T02:24:20;0.63;;;0.53;;
14396;SDS011;50653;47.810;13.022;2023-11-21T02:26:47;0.70;;;0.60;;
14396;SDS011;50653;47.810;13.022;2023-11-21T02:29:18;0.67;;;0.50;;
14396;SDS011;50653;47.810;13.022;2023-11-21T02:31:47;0.90;;;0.77;;
14396;SDS011;50653;47.810;13.022;2023-11-21T02:34:17;1.13;;;0.50;;
14396;SDS011;50653;47.810;13.022;2023-11-21T02:36:43;1.23;;;0.60;;
14396;SDS011;50653;47.810;13.022;2023-11-21T02:39:10;0.70;;;0.60;;
14396;SDS011;50653;47.810;13.022;2023-11-21T02:41:37;0.87;;;0.70;;
14396;SDS011;50653;47.810;13.022;2023-11-21T02:44:04;0.77;;;0.60;;
14396;SDS011;50653;47.810;13.022;2023-11-21T02:46:31;0.67;;;0.57;;
14396;SDS011;50653;47.810;13.022;2023-11-21T02:49:03;0.60;;;0.40;;
14396;SDS011;50653;47.810;13.022;2023-11-21T02:51:32;0.70;;;0.40;;
14396;SDS011;50653;47.810;13.022;2023-11-21T02:53:59;0.87;;;0.60;;
14396;SDS011;50653;47.810;13.022;2023-11-21T02:56:27;0.60;;;0.50;;
14396;SDS011;50653;47.810;13.022;2023-11-21T02:58:56;0.60;;;0.47;;
14396;SDS011;50653;47.810;13.022;2023-11-21T03:01:23;0.97;;;0.80;;
14396;SDS011;50653;47.810;13.022;2023-11-21T03:03:51;0.60;;;0.50;;
14396;SDS011;50653;47.810;13.022;2023-11-21T03:06:20;0.80;;;0.53;;
14396;SDS011;50653;47.810;13.022;2023-11-21T03:08:46;0.80;;;0.50;;
14396;SDS011;50653;47.810;13.022;2023-11-21T03:11:12;0.60;;;0.50;;
14396;SDS011;50653;47.810;13.022;2023-11-21T03:13:42;1.10;;;1.00;;
14396;SDS011;50653;47.810;13.022;2023-11-21T03:16:08;0.80;;;0.60;;
14396;SDS011;50653;47.810;13.022;2023-11-21T03:18:35;0.60;;;0.50;;
14396;SDS011;50653;47.810;13.022;2023-11-21T03:21:02;0.70;;;0.50;;
14396;SDS011;50653;47.810;13.022;2023-11-21T03:23:29;0.70;;;0.50;;
14396;SDS011;50653;47.810;13.022;2023-11-21T03:25:55;0.60;;;0.50;;
14396;SDS011;50653;47.810;13.022;2023-11-21T03:28:20;0.77;;;0.67;;
14396;SDS011;50653;47.810;13.022;2023-11-21T03:30:46;1.60;;;0.57;;
14396;SDS011;50653;47.810;13.022;2023-11-21T03:33:12;0.60;;;0.50;;
14396;SDS011;50653;47.810;13.022;2023-11-21T03:35:38;0.80;;;0.80;;
14396;SDS011;50653;47.810;13.022;2023-11-21T03:38:03;0.80;;;0.60;;
14396;SDS011;50653;47.810;13.022;2023-11-21T03:40:29;0.73;;;0.60;;
14396;SDS011;50653;47.810;13.022;2023-11-21T03:42:56;0.70;;;0.53;;
14396;SDS011;50653;47.810;13.022;2023-11-21T03:45:24;0.83;;;0.50;;
14396;SDS011;50653;47.810;13.022;2023-11-21T03:47:49;0.60;;;0.50;;
14396;SDS011;50653;47.810;13.022;2023-11-21T03:50:15;0.80;;;0.70;;
14396;SDS011;50653;47.810;13.022;2023-11-21T03:52:43;1.10;;;0.60;;
14396;SDS011;50653;47.810;13.022;2023-11-21T03:55:09;0.80;;;0.50;;
14396;SDS011;50653;47.810;13.022;2023-11-21T03:57:36;0.63;;;0.60;;
14396;SDS011;50653;47.810;13.022;2023-11-21T04:00:03;0.70;;;0.70;;
14396;SDS011;50653;47.810;13.022;2023-11-21T04:02:37;0.70;;;0.57;;
14396;SDS011;50653;47.810;13.022;2023-11-21T04:05:03;0.70;;;0.70;;
14396;SDS011;50653;47.810;13.022;2023-11-21T04:07:30;1.87;;;1.10;;
14396;SDS011;50653;47.810;13.022;2023-11-21T04:09:55;1.00;;;0.70;;
14396;SDS011;50653;47.810;13.022;2023-11-21T04:12:21;0.80;;;0.80;;
14396;SDS011;50653;47.810;13.022;2023-11-21T04:14:47;0.83;;;0.70;;
14396;SDS011;50653;47.810;13.022;2023-11-21T04:17:13;0.70;;;0.40;;
14396;SDS011;50653;47.810;13.022;2023-11-21T04:19:39;1.03;;;0.70;;
14396;SDS011;50653;47.810;13.022;2023-11-21T04:22:04;0.70;;;0.50;;
14396;SDS011;50653;47.810;13.022;2023-11-21T04:24:30;0.73;;;0.70;;
14396;SDS011;50653;47.810;13.022;2023-11-21T04:26:56;0.80;;;0.50;;
14396;SDS011;50653;47.810;13.022;2023-11-21T04:29:21;0.73;;;0.57;;
14396;SDS011;50653;47.810;13.022;2023-11-21T04:31:47;0.70;;;0.60;;
14396;SDS011;50653;47.810;13.022;2023-11-21T04:34:14;1.67;;;0.60;;
14396;SDS011;50653;47.810;13.022;2023-11-21T04:36:40;0.73;;;0.70;;
14396;SDS011;50653;47.810;13.022;2023-11-21T04:39:06;1.17;;;0.70;;
14396;SDS011;50653;47.810;13.022;2023-11-21T04:41:32;0.77;;;0.50;;
14396;SDS011;50653;47.810;13.022;2023-11-21T04:43:58;0.90;;;0.70;;
14396;SDS011;50653;47.810;13.022;2023-11-21T04:46:26;2.20;;;0.90;;
14396;SDS011;50653;47.810;13.022;2023-11-21T04:48:52;0.70;;;0.60;;
14396;SDS011;50653;47.810;13.022;2023-11-21T04:51:18;1.60;;;1.50;;
14396;SDS011;50653;47.810;13.022;2023-11-21T04:53:43;2.47;;;1.00;;
14396;SDS011;50653;47.810;13.022;2023-11-21T04:56:09;0.90;;;0.77;;
14396;SDS011;50653;47.810;13.022;2023-11-21T04:58:35;1.10;;;0.80;;
14396;SDS011;50653;47.810;13.022;2023-11-21T05:01:01;0.97;;;0.90;;
14396;SDS011;50653;47.810;13.022;2023-11-21T05:03:26;1.10;;;0.67;;
14396;SDS011;50653;47.810;13.022;2023-11-21T05:05:54;0.70;;;0.70;;
14396;SDS011;50653;47.810;13.022;2023-11-21T05:08:21;0.90;;;0.83;;
14396;SDS011;50653;47.810;13.022;2023-11-21T05:10:47;1.20;;;0.97;;
14396;SDS011;50653;47.810;13.022;2023-11-21T05:13:14;1.20;;;0.90;;
14396;SDS011;50653;47.810;13.022;2023-11-21T05:15:42;2.63;;;2.07;;
14396;SDS011;50653;47.810;13.022;2023-11-21T05:18:09;1.60;;;1.50;;
14396;SDS011;50653;47.810;13.022;2023-11-21T05:20:35;3.07;;;1.37;;
14396;SDS011;50653;47.810;13.022;2023-11-21T05:23:01;1.83;;;1.40;;
14396;SDS011;50653;47.810;13.022;2023-11-21T05:25:27;1.43;;;1.33;;
14396;SDS011;50653;47.810;13.022;2023-11-21T05:27:52;0.80;;;0.80;;
14396;SDS011;50653;47.810;13.022;2023-11-21T05:30:21;0.80;;;0.80;;
14396;SDS011;50653;47.810;13.022;2023-11-21T05:32:47;1.27;;;1.17;;
14396;SDS011;50653;47.810;13.022;2023-11-21T05:35:12;0.90;;;0.80;;
14396;SDS011;50653;47.810;13.022;2023-11-21T05:37:41;1.00;;;0.90;;
14396;SDS011;50653;47.810;13.022;2023-11-21T05:40:07;0.93;;;0.87;;
14396;SDS011;50653;47.810;13.022;2023-11-21T05:42:34;0.90;;;0.73;;
14396;SDS011;50653;47.810;13.022;2023-11-21T05:45:00;0.80;;;0.77;;
14396;SDS011;50653;47.810;13.022;2023-11-21T05:47:40;1.10;;;1.00;;
14396;SDS011;50653;47.810;13.022;2023-11-21T05:50:07;1.53;;;1.43;;
14396;SDS011;50653;47.810;13.022;2023-11-21T05:52:40;1.40;;;1.30;;
14396;SDS011;50653;47.810;13.022;2023-11-21T05:55:07;1.90;;;1.50;;
14396;SDS011;50653;47.810;13.022;2023-11-21T05:57:34;1.20;;;1.07;;
14396;SDS011;50653;47.810;13.022;2023-11-21T06:00:03;2.80;;;1.00;;
14396;SDS011;50653;47.810;13.022;2023-11-21T06:02:39;1.40;;;1.30;;
14396;SDS011;50653;47.810;13.022;2023-11-21T06:05:08;1.03;;;0.93;;
14396;SDS011;50653;47.810;13.022;2023-11-21T06:07:36;1.70;;;1.60;;
14396;SDS011;50653;47.810;13.022;2023-11-21T06:10:03;1.00;;;0.90;;
14396;SDS011;50653;47.810;13.022;2023-11-21T06:12:31;1.30;;;1.20;;
14396;SDS011;50653;47.810;13.022;2023-11-21T06:15:01;1.30;;;1.20;;
14396;SDS011;50653;47.810;13.022;2023-11-21T06:17:30;1.00;;;1.00;;
14396;SDS011;50653;47.810;13.022;2023-11-21T06:20:01;0.93;;;0.90;;
14396;SDS011;50653;47.810;13.022;2023-11-21T06:22:34;1.67;;;1.33;;
14396;SDS011;50653;47.810;13.022;2023-11-21T06:25:09;1.27;;;0.90;;
14396;SDS011;50653;47.810;13.022;2023-11-21T06:27:41;1.40;;;1.30;;
14396;SDS011;50653;47.810;13.022;2023-11-21T06:30:09;1.00;;;0.80;;
14396;SDS011;50653;47.810;13.022;2023-11-21T06:32:38;0.80;;;0.80;;
14396;SDS011;50653;47.810;13.022;2023-11-21T06:35:05;1.20;;;0.97;;
14396;SDS011;50653;47.810;13.022;2023-11-21T06:37:31;0.77;;;0.70;;
14396;SDS011;50653;47.810;13.022;2023-11-21T06:40:01;0.80;;;0.70;;
14396;SDS011;50653;47.810;13.022;2023-11-21T06:42:29;1.67;;;0.60;;
14396;SDS011;50653;47.810;13.022;2023-11-21T06:44:54;0.93;;;0.70;;
14396;SDS011;50653;47.810;13.022;2023-11-21T06:47:22;0.73;;;0.73;;
14396;SDS011;50653;47.810;13.022;2023-11-21T06:49:52;1.77;;;0.90;;
14396;SDS011;50653;47.810;13.022;2023-11-21T06:52:18;0.70;;;0.70;;
14396;SDS011;50653;47.810;13.022;2023-11-21T06:54:45;1.20;;;1.10;;
14396;SDS011;50653;47.810;13.022;2023-11-21T06:57:11;1.83;;;0.80;;
14396;SDS011;50653;47.810;13.022;2023-11-21T06:59:37;0.90;;;0.70;;
14396;SDS011;50653;47.810;13.022;2023-11-21T07:02:03;1.30;;;1.03;;
14396;SDS011;50653;47.810;13.022;2023-11-21T07:04:31;0.80;;;0.80;;
14396;SDS011;50653;47.810;13.022;2023-11-21T07:07:02;1.23;;;1.10;;
14396;SDS011;50653;47.810;13.022;2023-11-21T07:09:28;0.70;;;0.60;;
14396;SDS011;50653;47.810;13.022;2023-11-21T07:11:54;0.90;;;0.60;;
14396;SDS011;50653;47.810;13.022;2023-11-21T07:14:20;0.80;;;0.70;;
14396;SDS011;50653;47.810;13.022;2023-11-21T07:16:47;1.00;;;0.90;;
14396;SDS011;50653;47.810;13.022;2023-11-21T07:19:13;1.10;;;1.00;;
14396;SDS011;50653;47.810;13.022;2023-11-21T07:21:42;0.97;;;0.87;;
14396;SDS011;50653;47.810;13.022;2023-11-21T07:24:08;0.87;;;0.70;;
14396;SDS011;50653;47.810;13.022;2023-11-21T07:26:34;0.80;;;0.60;;
14396;SDS011;50653;47.810;13.022;2023-11-21T07:29:01;0.73;;;0.67;;
14396;SDS011;50653;47.810;13.022;2023-11-21T07:31:27;0.87;;;0.60;;
14396;SDS011;50653;47.810;13.022;2023-11-21T07:33:54;0.90;;;0.70;;
14396;SDS011;50653;47.810;13.022;2023-11-21T07:36:22;0.93;;;0.80;;
14396;SDS011;50653;47.810;13.022;2023-11-21T07:38:48;0.80;;;0.80;;
14396;SDS011;50653;47.810;13.022;2023-11-21T07:41:15;1.00;;;0.70;;
14396;SDS011;50653;47.810;13.022;2023-11-21T07:43:42;0.90;;;0.80;;
14396;SDS011;50653;47.810;13.022;2023-11-21T07:46:09;0.80;;;0.80;;
14396;SDS011;50653;47.810;13.022;2023-11-21T07:48:37;1.60;;;1.17;;
14396;SDS011;50653;47.810;13.022;2023-11-21T07:51:04;1.13;;;1.03;;
14396;SDS011;50653;47.810;13.022;2023-11-21T07:53:30;0.90;;;0.80;;
14396;SDS011;50653;47.810;13.022;2023-11-21T07:55:56;1.17;;;0.87;;
14396;SDS011;50653;47.810;13.022;2023-11-21T07:58:23;1.27;;;1.17;;
14396;SDS011;50653;47.810;13.022;2023-11-21T08:00:49;1.20;;;1.10;;
14396;SDS011;50653;47.810;13.022;2023-11-21T08:03:15;1.07;;;0.80;;
14396;SDS011;50653;47.810;13.022;2023-11-21T08:05:42;1.10;;;0.93;;
14396;SDS011;50653;47.810;13.022;2023-11-21T08:08:08;1.10;;;0.80;;
14396;SDS011;50653;47.810;13.022;2023-11-21T08:10:34;1.00;;;0.90;;
14396;SDS011;50653;47.810;13.022;2023-11-21T08:13:00;1.10;;;1.00;;
14396;SDS011;50653;47.810;13.022;2023-11-21T08:15:27;1.20;;;1.10;;
14396;SDS011;50653;47.810;13.022;2023-11-21T08:17:53;1.30;;;1.20;;
14396;SDS011;50653;47.810;13.022;2023-11-21T08:20:18;0.80;;;0.80;;
14396;SDS011;50653;47.810;13.022;2023-11-21T08:22:44;1.03;;;0.93;;
14396;SDS011;50653;47.810;13.022;2023-11-21T08:25:10;1.30;;;1.20;;
14396;SDS011;50653;47.810;13.022;2023-11-21T08:27:36;1.13;;;0.90;;
14396;SDS011;50653;47.810;13.022;2023-11-21T08:30:02;1.20;;;1.10;;
14396;SDS011;50653;47.810;13.022;2023-11-21T08:32:28;1.50;;;1.40;;
14396;SDS011;50653;47.810;13.022;2023-11-21T08:34:58;1.80;;;1.70;;
14396;SDS011;50653;47.810;13.022;2023-11-21T08:37:27;5.40;;;1.60;;
14396;SDS011;50653;47.810;13.022;2023-11-21T08:39:58;1.17;;;1.07;;
14396;SDS011;50653;47.810;13.022;2023-11-21T08:42:27;1.40;;;1.00;;
14396;SDS011;50653;47.810;13.022;2023-11-21T08:44:55;1.83;;;1.73;;
14396;SDS011;50653;47.810;13.022;2023-11-21T08:47:23;1.20;;;1.10;;
14396;SDS011;50653;47.810;13.022;2023-11-21T08:49:50;1.17;;;1.00;;
14396;SDS011;50653;47.810;13.022;2023-11-21T08:52:18;1.10;;;1.00;;
14396;SDS011;50653;47.810;13.022;2023-11-21T08:54:50;2.93;;;1.00;;
14396;SDS011;50653;47.810;13.022;2023-11-21T08:57:23;2.07;;;0.97;;
14396;SDS011;50653;47.810;13.022;2023-11-21T08:59:49;0.90;;;0.77;;
14396;SDS011;50653;47.810;13.022;2023-11-21T09:02:20;0.97;;;0.60;;
14396;SDS011;50653;47.810;13.022;2023-11-21T09:04:48;0.87;;;0.83;;
14396;SDS011;50653;47.810;13.022;2023-11-21T09:07:15;2.70;;;1.20;;
14396;SDS011;50653;47.810;13.022;2023-11-21T09:09:41;0.77;;;0.70;;
14396;SDS011;50653;47.810;13.022;2023-11-21T09:12:07;0.97;;;0.70;;
14396;SDS011;50653;47.810;13.022;2023-11-21T09:14:32;0.90;;;0.80;;
14396;SDS011;50653;47.810;13.022;2023-11-21T09:16:59;0.67;;;0.50;;
14396;SDS011;50653;47.810;13.022;2023-11-21T09:19:24;2.43;;;1.10;;
14396;SDS011;50653;47.810;13.022;2023-11-21T09:21:50;1.40;;;1.30;;
14396;SDS011;50653;47.810;13.022;2023-11-21T09:24:15;1.47;;;0.80;;
14396;SDS011;50653;47.810;13.022;2023-11-21T09:26:41;0.73;;;0.70;;
14396;SDS011;50653;47.810;13.022;2023-11-21T09:29:07;0.90;;;0.80;;
14396;SDS011;50653;47.810;13.022;2023-11-21T09:31:33;2.10;;;1.27;;
14396;SDS011;50653;47.810;13.022;2023-11-21T09:33:59;0.80;;;0.77;;
14396;SDS011;50653;47.810;13.022;2023-11-21T09:36:24;1.20;;;1.00;;
14396;SDS011;50653;47.810;13.022;2023-11-21T09:38:53;0.73;;;0.63;;
14396;SDS011;50653;47.810;13.022;2023-11-21T09:41:26;1.33;;;0.70;;
14396;SDS011;50653;47.810;13.022;2023-11-21T09:44:01;0.80;;;0.60;;
14396;SDS011;50653;47.810;13.022;2023-11-21T09:46:32;0.63;;;0.60;;
14396;SDS011;50653;47.810;13.022;2023-11-21T09:48:58;0.80;;;0.60;;
14396;SDS011;50653;47.810;13.022;2023-11-21T09:51:30;0.90;;;0.70;;
14396;SDS011;50653;47.810;13.022;2023-11-21T09:53:58;0.83;;;0.67;;
14396;SDS011;50653;47.810;13.022;2023-11-21T09:56:32;1.43;;;0.70;;
14396;SDS011;50653;47.810;13.022;2023-11-21T09:58:57;1.10;;;0.70;;
14396;SDS011;50653;47.810;13.022;2023-11-21T10:01:29;1.33;;;0.70;;
14396;SDS011;50653;47.810;13.022;2023-11-21T10:03:55;0.70;;;0.60;;
14396;SDS011;50653;47.810;13.022;2023-11-21T10:06:21;0.70;;;0.67;;
14396;SDS011;50653;47.810;13.022;2023-11-21T10:08:50;1.00;;;0.80;;
14396;SDS011;50653;47.810;13.022;2023-11-21T10:11:17;1.10;;;0.90;;
14396;SDS011;50653;47.810;13.022;2023-11-21T10:13:44;1.00;;;0.77;;
14396;SDS011;50653;47.810;13.022;2023-11-21T10:16:11;0.70;;;0.50;;
14396;SDS011;50653;47.810;13.022;2023-11-21T10:18:51;0.90;;;0.80;;
14396;SDS011;50653;47.810;13.022;2023-11-21T10:21:33;2.33;;;1.33;;
14396;SDS011;50653;47.810;13.022;2023-11-21T10:24:11;0.93;;;0.83;;
14396;SDS011;50653;47.810;13.022;2023-11-21T10:26:38;0.63;;;0.53;;
14396;SDS011;50653;47.810;13.022;2023-11-21T10:29:04;0.80;;;0.60;;
14396;SDS011;50653;47.810;13.022;2023-11-21T10:31:30;0.90;;;0.80;;
14396;SDS011;50653;47.810;13.022;2023-11-21T10:34:14;0.90;;;0.60;;
14396;SDS011;50653;47.810;13.022;2023-11-21T10:36:43;0.60;;;0.50;;
14396;SDS011;50653;47.810;13.022;2023-11-21T10:39:09;0.60;;;0.47;;
14396;SDS011;50653;47.810;13.022;2023-11-21T10:41:39;0.67;;;0.40;;
14396;SDS011;50653;47.810;13.022;2023-11-21T10:44:05;0.70;;;0.60;;
14396;SDS011;50653;47.810;13.022;2023-11-21T10:46:34;0.67;;;0.57;;
14396;SDS011;50653;47.810;13.022;2023-11-21T10:49:00;0.70;;;0.70;;
14396;SDS011;50653;47.810;13.022;2023-11-21T10:51:35;0.97;;;0.60;;
14396;SDS011;50653;47.810;13.022;2023-11-21T10:54:02;1.10;;;0.60;;
14396;SDS011;50653;47.810;13.022;2023-11-21T10:56:48;0.77;;;0.77;;
14396;SDS011;50653;47.810;13.022;2023-11-21T10:59:19;0.70;;;0.50;;
14396;SDS011;50653;47.810;13.022;2023-11-21T11:01:50;1.53;;;0.60;;
14396;SDS011;50653;47.810;13.022;2023-11-21T11:04:18;0.70;;;0.70;;
14396;SDS011;50653;47.810;13.022;2023-11-21T11:06:44;1.03;;;0.60;;
14396;SDS011;50653;47.810;13.022;2023-11-21T11:09:16;0.80;;;0.70;;
14396;SDS011;50653;47.810;13.022;2023-11-21T11:11:42;0.60;;;0.50;;
14396;SDS011;50653;47.810;13.022;2023-11-21T11:14:11;1.40;;;1.00;;
14396;SDS011;50653;47.810;13.022;2023-11-21T11:16:41;0.83;;;0.50;;
14396;SDS011;50653;47.810;13.022;2023-11-21T11:19:09;0.70;;;0.60;;
14396;SDS011;50653;47.810;13.022;2023-11-21T11:27:30;1.07;;;0.97;;
14396;SDS011;50653;47.810;13.022;2023-11-21T11:33:25;1.03;;;0.93;;
14396;SDS011;50653;47.810;13.022;2023-11-21T11:36:08;1.17;;;1.07;;
14396;SDS011;50653;47.810;13.022;2023-11-21T11:38:39;0.87;;;0.70;;
14396;SDS011;50653;47.810;13.022;2023-11-21T11:41:10;0.77;;;0.73;;
14396;SDS011;50653;47.810;13.022;2023-11-21T11:43:35;0.70;;;0.60;;
14396;SDS011;50653;47.810;13.022;2023-11-21T11:46:10;0.60;;;0.40;;
14396;SDS011;50653;47.810;13.022;2023-11-21T11:48:40;0.67;;;0.47;;
14396;SDS011;50653;47.810;13.022;2023-11-21T11:51:07;0.80;;;0.60;;
14396;SDS011;50653;47.810;13.022;2023-11-21T11:53:37;0.80;;;0.50;;
14396;SDS011;50653;47.810;13.022;2023-11-21T11:56:23;1.40;;;0.80;;
14396;SDS011;50653;47.810;13.022;2023-11-21T11:58:56;0.90;;;0.60;;
14396;SDS011;50653;47.810;13.022;2023-11-21T12:01:24;0.93;;;0.60;;
14396;SDS011;50653;47.810;13.022;2023-11-21T12:07:02;1.17;;;1.07;;
14396;SDS011;50653;47.810;13.022;2023-11-21T12:09:28;1.10;;;1.00;;
14396;SDS011;50653;47.810;13.022;2023-11-21T12:11:56;0.77;;;0.70;;
14396;SDS011;50653;47.810;13.022;2023-11-21T12:14:22;0.77;;;0.70;;
14396;SDS011;50653;47.810;13.022;2023-11-21T12:16:48;0.93;;;0.60;;
14396;SDS011;50653;47.810;13.022;2023-11-21T12:19:14;1.07;;;0.77;;
14396;SDS011;50653;47.810;13.022;2023-11-21T12:21:40;0.83;;;0.60;;
14396;SDS011;50653;47.810;13.022;2023-11-21T12:24:06;0.73;;;0.63;;
14396;SDS011;50653;47.810;13.022;2023-11-21T12:26:35;0.70;;;0.70;;
14396;SDS011;50653;47.810;13.022;2023-11-21T12:29:01;0.90;;;0.80;;
14396;SDS011;50653;47.810;13.022;2023-11-21T12:31:29;0.80;;;0.60;;
14396;SDS011;50653;47.810;13.022;2023-11-21T12:33:55;0.70;;;0.60;;
14396;SDS011;50653;47.810;13.022;2023-11-21T12:36:22;0.90;;;0.70;;
14396;SDS011;50653;47.810;13.022;2023-11-21T12:38:49;0.70;;;0.57;;
14396;SDS011;50653;47.810;13.022;2023-11-21T12:41:15;0.80;;;0.50;;
14396;SDS011;50653;47.810;13.022;2023-11-21T12:43:42;0.93;;;0.60;;
14396;SDS011;50653;47.810;13.022;2023-11-21T12:46:08;0.67;;;0.50;;
14396;SDS011;50653;47.810;13.022;2023-11-21T12:48:38;0.80;;;0.50;;
14396;SDS011;50653;47.810;13.022;2023-11-21T12:51:07;0.80;;;0.50;;
14396;SDS011;50653;47.810;13.022;2023-11-21T12:53:34;0.60;;;0.47;;
14396;SDS011;50653;47.810;13.022;2023-11-21T12:56:07;0.50;;;0.40;;
14396;SDS011;50653;47.810;13.022;2023-11-21T12:58:37;0.70;;;0.60;;
14396;SDS011;50653;47.810;13.022;2023-11-21T13:01:07;2.30;;;0.70;;
14396;SDS011;50653;47.810;13.022;2023-11-21T13:03:43;1.00;;;0.60;;
14396;SDS011;50653;47.810;13.022;2023-11-21T13:06:13;0.80;;;0.60;;
14396;SDS011;50653;47.810;13.022;2023-11-21T13:08:40;0.80;;;0.80;;
14396;SDS011;50653;47.810;13.022;2023-11-21T13:11:05;0.70;;;0.50;;
14396;SDS011;50653;47.810;13.022;2023-11-21T13:13:32;0.70;;;0.50;;
14396;SDS011;50653;47.810;13.022;2023-11-21T13:16:01;0.60;;;0.50;;
14396;SDS011;50653;47.810;13.022;2023-11-21T13:18:30;0.77;;;0.50;;
14396;SDS011;50653;47.810;13.022;2023-11-21T13:21:01;2.13;;;0.70;;
14396;SDS011;50653;47.810;13.022;2023-11-21T13:23:42;0.50;;;0.40;;
14396;SDS011;50653;47.810;13.022;2023-11-21T13:26:11;0.60;;;0.50;;
14396;SDS011;50653;47.810;13.022;2023-11-21T13:28:37;0.70;;;0.40;;
14396;SDS011;50653;47.810;13.022;2023-11-21T13:31:03;1.07;;;0.43;;
14396;SDS011;50653;47.810;13.022;2023-11-21T13:33:46;0.70;;;0.40;;
14396;SDS011;50653;47.810;13.022;2023-11-21T13:36:20;0.93;;;0.57;;
14396;SDS011;50653;47.810;13.022;2023-11-21T13:38:49;0.77;;;0.70;;
14396;SDS011;50653;47.810;13.022;2023-11-21T13:41:35;1.10;;;1.00;;
14396;SDS011;50653;47.810;13.022;2023-11-21T13:44:03;0.73;;;0.60;;
14396;SDS011;50653;47.810;13.022;2023-11-21T13:46:40;0.67;;;0.50;;
14396;SDS011;50653;47.810;13.022;2023-11-21T13:49:06;0.70;;;0.57;;
14396;SDS011;50653;47.810;13.022;2023-11-21T13:51:35;0.60;;;0.50;;
14396;SDS011;50653;47.810;13.022;2023-11-21T13:54:05;0.57;;;0.40;;
14396;SDS011;50653;47.810;13.022;2023-11-21T13:56:34;0.97;;;0.60;;
14396;SDS011;50653;47.810;13.022;2023-11-21T13:59:00;0.57;;;0.40;;
14396;SDS011;50653;47.810;13.022;2023-11-21T14:01:34;0.60;;;0.50;;
14396;SDS011;50653;47.810;13.022;2023-11-21T14:04:18;0.50;;;0.40;;
14396;SDS011;50653;47.810;13.022;2023-11-21T14:06:45;0.57;;;0.40;;
14396;SDS011;50653;47.810;13.022;2023-11-21T14:09:17;0.80;;;0.40;;
14396;SDS011;50653;47.810;13.022;2023-11-21T14:11:57;0.60;;;0.40;;
14396;SDS011;50653;47.810;13.022;2023-11-21T14:14:23;0.50;;;0.50;;
14396;SDS011;50653;47.810;13.022;2023-11-21T14:16:51;0.57;;;0.40;;
14396;SDS011;50653;47.810;13.022;2023-11-21T14:19:17;0.50;;;0.33;;
14396;SDS011;50653;47.810;13.022;2023-11-21T14:21:43;0.50;;;0.40;;
14396;SDS011;50653;47.810;13.022;2023-11-21T14:24:10;0.50;;;0.40;;
14396;SDS011;50653;47.810;13.022;2023-11-21T14:26:41;0.50;;;0.43;;
14396;SDS011;50653;47.810;13.022;2023-11-21T14:29:08;0.50;;;0.50;;
14396;SDS011;50653;47.810;13.022;2023-11-21T14:31:36;0.70;;;0.40;;
14396;SDS011;50653;47.810;13.022;2023-11-21T14:34:01;0.60;;;0.50;;
14396;SDS011;50653;47.810;13.022;2023-11-21T14:36:28;0.70;;;0.53;;
14396;SDS011;50653;47.810;13.022;2023-11-21T14:38:54;1.20;;;0.70;;
14396;SDS011;50653;47.810;13.022;2023-11-21T14:41:19;1.10;;;0.90;;
14396;SDS011;50653;47.810;13.022;2023-11-21T14:43:45;1.30;;;0.77;;
14396;SDS011;50653;47.810;13.022;2023-11-21T14:46:14;1.27;;;1.17;;
14396;SDS011;50653;47.810;13.022;2023-11-21T14:48:42;1.10;;;1.00;;
14396;SDS011;50653;47.810;13.022;2023-11-21T14:51:11;0.97;;;0.80;;